createdAt,value
2018-12-16T00:01:58.865Z,41.83
2018-12-16T00:04:29.880Z,44.53
2018-12-16T00:07:00.916Z,46.77
2018-12-16T00:09:30.610Z,45.60
2018-12-16T00:11:59.680Z,49.40
2018-12-16T00:14:30.669Z,47.03
2018-12-16T00:16:59.849Z,45.47
2018-12-16T00:19:29.109Z,52.77
2018-12-16T00:21:58.205Z,56.27
2018-12-16T00:24:27.304Z,60.27
2018-12-16T00:27:08.783Z,61.63
2018-12-16T00:29:37.864Z,58.60
2018-12-16T00:32:07.037Z,60.40
2018-12-16T00:34:36.303Z,58.30
2018-12-16T00:37:05.458Z,57.93
2018-12-16T00:39:34.570Z,62.53
2018-12-16T00:42:03.763Z,72.80
2018-12-16T00:44:33.054Z,72.17
2018-12-16T00:47:02.140Z,67.60
2018-12-16T00:49:31.257Z,75.23
2018-12-16T00:52:00.545Z,67.10
2018-12-16T00:54:29.667Z,65.90
2018-12-16T00:56:58.705Z,65.40
2018-12-16T00:59:27.768Z,72.97
2018-12-16T01:01:58.721Z,71.67
2018-12-16T01:04:27.893Z,80.30
2018-12-16T01:06:57.019Z,65.43
2018-12-16T01:09:26.097Z,75.60
2018-12-16T01:11:55.149Z,76.10
2018-12-16T01:14:24.261Z,73.30
2018-12-16T01:16:53.384Z,67.97
2018-12-16T01:19:22.372Z,66.43
2018-12-16T01:21:51.558Z,70.73
2018-12-16T01:24:20.602Z,71.17
2018-12-16T01:26:49.640Z,66.40
2018-12-16T01:29:18.742Z,63.77
2018-12-16T01:31:47.806Z,60.97
2018-12-16T01:34:16.881Z,59.27
2018-12-16T01:36:45.953Z,60.50
2018-12-16T01:39:15.108Z,59.80
2018-12-16T01:41:44.133Z,65.67
2018-12-16T01:44:13.297Z,59.77
2018-12-16T01:46:42.341Z,60.93
2018-12-16T01:49:11.485Z,58.87
2018-12-16T01:51:40.608Z,63.50
2018-12-16T01:54:09.649Z,60.63
2018-12-16T01:56:38.690Z,62.73
2018-12-16T01:59:07.757Z,63.20
2018-12-16T02:01:38.857Z,56.50
2018-12-16T02:04:07.848Z,60.00
2018-12-16T02:06:37.071Z,65.40
2018-12-16T02:09:07.109Z,63.40
2018-12-16T02:11:38.278Z,53.13
2018-12-16T02:14:07.263Z,60.90
2018-12-16T02:16:36.457Z,58.77
2018-12-16T02:19:05.478Z,60.50
2018-12-16T02:21:34.591Z,65.80
2018-12-16T02:24:04.236Z,57.93
2018-12-16T02:26:33.233Z,61.67
2018-12-16T02:29:02.381Z,59.63
2018-12-16T02:31:31.476Z,57.50
2018-12-16T02:34:00.793Z,53.90
2018-12-16T02:36:30.017Z,55.80
2018-12-16T02:38:59.178Z,57.07
2018-12-16T02:41:28.262Z,52.40
2018-12-16T02:43:57.313Z,52.53
2018-12-16T02:46:26.390Z,54.53
2018-12-16T02:48:55.430Z,47.43
2018-12-16T02:51:24.518Z,50.13
2018-12-16T02:53:53.543Z,50.80
2018-12-16T02:56:22.530Z,44.87
2018-12-16T02:58:51.585Z,42.47
2018-12-16T03:01:20.819Z,45.00
2018-12-16T03:03:49.813Z,45.83
2018-12-16T03:06:18.937Z,41.53
2018-12-16T03:08:47.994Z,52.00
2018-12-16T03:11:17.015Z,48.80
2018-12-16T03:13:46.239Z,44.27
2018-12-16T03:16:15.342Z,42.93
2018-12-16T03:18:44.392Z,44.93
2018-12-16T03:21:13.534Z,44.23
2018-12-16T03:23:42.557Z,44.00
2018-12-16T03:26:11.626Z,40.00
2018-12-16T03:28:40.666Z,44.30
2018-12-16T03:31:09.872Z,40.77
2018-12-16T03:33:38.897Z,41.60
2018-12-16T03:36:08.137Z,39.83
2018-12-16T03:38:37.262Z,38.07
2018-12-16T03:41:06.340Z,42.70
2018-12-16T03:43:35.344Z,38.27
2018-12-16T03:46:04.538Z,35.70
2018-12-16T03:48:33.616Z,33.67
2018-12-16T03:51:02.634Z,38.97
2018-12-16T03:53:31.637Z,38.57
2018-12-16T03:56:00.640Z,37.67
2018-12-16T03:58:29.633Z,39.43
2018-12-16T04:00:58.639Z,36.23
2018-12-16T04:03:27.677Z,37.53
2018-12-16T04:05:56.742Z,32.97
2018-12-16T04:08:25.877Z,36.73
2018-12-16T04:10:56.025Z,37.40
2018-12-16T04:13:25.149Z,40.43
2018-12-16T04:15:56.175Z,39.00
2018-12-16T04:18:25.267Z,36.60
2018-12-16T04:20:54.326Z,37.13
2018-12-16T04:23:27.395Z,40.93
2018-12-16T04:25:54.453Z,36.30
2018-12-16T04:28:23.763Z,38.57
2018-12-16T04:30:52.800Z,37.67
2018-12-16T04:33:21.833Z,39.40
2018-12-16T04:35:50.926Z,37.03
2018-12-16T04:38:20.031Z,38.73
2018-12-16T04:40:49.129Z,32.43
2018-12-16T04:43:18.169Z,32.83
2018-12-16T04:45:47.237Z,38.33
2018-12-16T04:48:16.275Z,40.57
2018-12-16T04:50:45.422Z,42.07
2018-12-16T04:53:14.493Z,42.37
2018-12-16T04:55:43.526Z,43.47
2018-12-16T04:58:12.608Z,42.23
2018-12-16T05:00:41.697Z,42.47
2018-12-16T05:03:10.930Z,42.50
2018-12-16T05:05:40.137Z,35.77
2018-12-16T05:08:09.409Z,32.93
2018-12-16T05:10:38.453Z,37.73
2018-12-16T05:13:07.495Z,32.83
2018-12-16T05:15:36.692Z,39.73
2018-12-16T05:18:05.769Z,33.80
2018-12-16T05:20:34.812Z,32.93
2018-12-16T05:23:03.958Z,32.33
2018-12-16T05:25:35.050Z,30.93
2018-12-16T05:28:04.195Z,31.63
2018-12-16T05:30:33.322Z,30.03
2018-12-16T05:33:02.325Z,29.73
2018-12-16T05:35:31.406Z,36.77
2018-12-16T05:38:00.636Z,30.13
2018-12-16T05:40:29.883Z,31.63
2018-12-16T05:42:58.989Z,32.47
2018-12-16T05:45:28.114Z,35.03
2018-12-16T05:47:57.135Z,31.83
2018-12-16T05:50:26.286Z,30.87
2018-12-16T05:52:55.353Z,30.20
2018-12-16T05:55:24.449Z,29.23
2018-12-16T05:57:53.434Z,28.90
2018-12-16T06:00:22.530Z,35.17
2018-12-16T06:02:51.532Z,30.60
2018-12-16T06:05:20.678Z,35.97
2018-12-16T06:07:49.777Z,25.53
2018-12-16T06:10:18.945Z,31.83
2018-12-16T06:12:49.175Z,25.97
2018-12-16T06:15:18.261Z,30.10
2018-12-16T06:17:47.268Z,28.93
2018-12-16T06:20:16.322Z,26.33
2018-12-16T06:22:45.365Z,24.63
2018-12-16T06:25:14.435Z,30.33
2018-12-16T06:27:43.566Z,32.07
2018-12-16T06:30:13.045Z,28.87
2018-12-16T06:32:42.137Z,28.00
2018-12-16T06:35:11.246Z,28.43
2018-12-16T06:37:40.533Z,28.03
2018-12-16T06:40:09.556Z,27.60
2018-12-16T06:42:38.845Z,25.70
2018-12-16T06:45:07.914Z,28.17
2018-12-16T06:47:37.170Z,30.47
2018-12-16T06:50:07.002Z,26.53
2018-12-16T06:52:36.078Z,29.97
2018-12-16T06:55:05.655Z,25.63
2018-12-16T06:57:34.769Z,28.83
2018-12-16T07:00:04.326Z,25.03
2018-12-16T07:02:33.387Z,26.63
2018-12-16T07:05:02.489Z,30.27
2018-12-16T07:07:31.698Z,30.47
2018-12-16T07:10:00.739Z,24.23
2018-12-16T07:12:29.750Z,32.60
2018-12-16T07:14:58.883Z,27.10
2018-12-16T07:17:28.076Z,26.83
2018-12-16T07:19:57.251Z,26.73
2018-12-16T07:22:26.279Z,30.10
2018-12-16T07:24:55.334Z,32.00
2018-12-16T07:27:24.394Z,29.37
2018-12-16T07:29:53.436Z,32.27
2018-12-16T07:32:23.777Z,31.07
2018-12-16T07:34:53.045Z,32.63
2018-12-16T07:37:22.134Z,41.43
2018-12-16T07:39:51.240Z,32.17
2018-12-16T07:42:20.348Z,27.50
2018-12-16T07:44:49.377Z,31.00
2018-12-16T07:47:18.704Z,30.47
2018-12-16T07:49:47.960Z,25.57
2018-12-16T07:52:17.024Z,33.33
2018-12-16T07:54:46.120Z,32.50
2018-12-16T07:57:15.221Z,33.03
2018-12-16T07:59:44.354Z,34.23
2018-12-16T08:02:13.460Z,36.47
2018-12-16T08:04:42.457Z,30.10
2018-12-16T08:07:11.437Z,34.60
2018-12-16T08:09:40.494Z,32.93
2018-12-16T08:12:09.563Z,33.70
2018-12-16T08:14:38.661Z,32.40
2018-12-16T08:17:07.807Z,32.17
2018-12-16T08:19:36.830Z,40.07
2018-12-16T08:22:05.824Z,37.87
2018-12-16T08:24:34.841Z,42.60
2018-12-16T08:27:03.981Z,50.47
2018-12-16T08:29:33.328Z,44.33
2018-12-16T08:32:02.445Z,39.20
2018-12-16T08:34:31.631Z,37.83
2018-12-16T08:37:00.689Z,42.80
2018-12-16T08:39:29.909Z,45.73
2018-12-16T08:41:58.921Z,43.17
2018-12-16T08:44:28.081Z,38.90
2018-12-16T08:46:57.155Z,41.30
2018-12-16T08:49:26.188Z,34.80
2018-12-16T08:51:55.469Z,41.73
2018-12-16T08:54:30.095Z,36.77
2018-12-16T08:56:55.496Z,44.77
2018-12-16T08:59:24.606Z,49.43
2018-12-16T09:01:53.661Z,61.30
2018-12-16T09:04:23.109Z,55.53
2018-12-16T09:06:52.141Z,62.57
2018-12-16T09:09:21.682Z,94.03
2018-12-16T09:11:50.694Z,41.03
2018-12-16T09:14:19.906Z,41.93
2018-12-16T09:16:48.981Z,44.57
2018-12-16T09:19:17.975Z,42.50
2018-12-16T09:21:47.113Z,36.23
2018-12-16T09:24:16.450Z,35.20
2018-12-16T09:26:45.466Z,35.17
2018-12-16T09:29:14.622Z,87.57
2018-12-16T09:31:43.803Z,107.83
2018-12-16T09:34:12.845Z,61.37
2018-12-16T09:36:41.839Z,140.13
2018-12-16T09:39:10.990Z,128.87
2018-12-16T09:41:40.370Z,137.77
2018-12-16T09:44:09.448Z,85.10
2018-12-16T09:46:38.597Z,56.77
2018-12-16T09:49:07.684Z,48.57
2018-12-16T09:51:36.680Z,47.67
2018-12-16T09:54:06.028Z,42.93
2018-12-16T09:56:35.050Z,42.80
2018-12-16T09:59:04.246Z,39.80
2018-12-16T10:01:33.430Z,43.07
2018-12-16T10:04:02.585Z,41.80
2018-12-16T10:06:31.577Z,42.70
2018-12-16T10:09:00.617Z,43.40
2018-12-16T10:11:29.969Z,50.60
2018-12-16T10:13:59.322Z,47.50
2018-12-16T10:16:28.444Z,41.73
2018-12-16T10:18:57.479Z,46.43
2018-12-16T10:21:26.698Z,52.60
2018-12-16T10:23:55.921Z,50.83
2018-12-16T10:26:25.246Z,49.50
2018-12-16T10:28:54.305Z,53.07
2018-12-16T10:31:23.441Z,48.40
2018-12-16T10:33:52.512Z,39.10
2018-12-16T10:36:21.745Z,43.00
2018-12-16T10:38:50.770Z,41.63
2018-12-16T10:41:19.837Z,40.67
2018-12-16T10:43:48.961Z,43.30
2018-12-16T10:46:18.012Z,44.60
2018-12-16T10:48:47.079Z,45.23
2018-12-16T10:51:16.213Z,44.90
2018-12-16T10:53:45.223Z,52.00
2018-12-16T10:56:14.216Z,55.60
2018-12-16T10:58:43.365Z,51.77
2018-12-16T11:01:31.918Z,51.43
2018-12-16T11:04:00.956Z,53.70
2018-12-16T11:06:30.050Z,48.43
2018-12-16T11:08:59.297Z,50.07
2018-12-16T11:11:28.352Z,60.97
2018-12-16T11:13:57.462Z,59.97
2018-12-16T11:16:26.577Z,54.07
2018-12-16T11:18:55.704Z,57.37
2018-12-16T11:21:24.697Z,67.37
2018-12-16T11:23:54.043Z,63.63
2018-12-16T11:26:23.349Z,61.43
2018-12-16T11:28:52.512Z,66.20
2018-12-16T11:31:21.740Z,73.27
2018-12-16T11:33:50.832Z,89.67
2018-12-16T11:36:19.956Z,76.60
2018-12-16T11:38:49.188Z,86.43
2018-12-16T11:41:18.372Z,86.37
2018-12-16T11:43:47.521Z,62.80
2018-12-16T11:46:16.600Z,72.63
2018-12-16T11:48:45.708Z,60.50
2018-12-16T11:51:14.962Z,61.33
2018-12-16T11:53:44.206Z,58.80
2018-12-16T11:56:13.965Z,58.97
2018-12-16T11:58:43.651Z,55.97
2018-12-16T12:01:12.754Z,58.67
2018-12-16T12:03:41.797Z,53.10
2018-12-16T12:06:11.157Z,56.80
2018-12-16T12:08:41.101Z,74.80
2018-12-16T12:11:10.269Z,81.83
2018-12-16T12:13:39.433Z,68.77
2018-12-16T12:16:08.601Z,64.47
2018-12-16T12:18:37.765Z,65.57
2018-12-16T12:21:06.907Z,62.53
2018-12-16T12:23:36.085Z,59.17
2018-12-16T12:26:05.405Z,61.97
2018-12-16T12:28:34.713Z,59.00
2018-12-16T12:31:05.029Z,60.27
2018-12-16T12:33:34.074Z,65.50
2018-12-16T12:36:03.190Z,59.47
2018-12-16T12:38:32.531Z,62.90
2018-12-16T12:41:01.662Z,67.80
2018-12-16T12:43:30.646Z,60.33
2018-12-16T12:45:59.636Z,68.37
2018-12-16T12:48:30.423Z,59.97
2018-12-16T12:50:59.641Z,56.70
2018-12-16T12:53:28.833Z,66.80
2018-12-16T12:55:57.842Z,64.93
2018-12-16T12:58:26.914Z,64.90
2018-12-16T13:00:55.906Z,65.53
2018-12-16T13:03:25.474Z,69.47
2018-12-16T13:05:54.696Z,65.10
2018-12-16T13:08:23.829Z,68.20
2018-12-16T13:10:52.912Z,68.60
2018-12-16T13:13:22.251Z,72.37
2018-12-16T13:15:51.879Z,99.80
2018-12-16T13:18:21.138Z,60.17
2018-12-16T13:20:50.211Z,69.10
2018-12-16T13:23:19.315Z,62.63
2018-12-16T13:25:59.653Z,75.43
2018-12-16T13:28:29.024Z,66.17
2018-12-16T13:30:58.125Z,68.93
2018-12-16T13:33:27.142Z,75.03
2018-12-16T13:35:56.165Z,77.60
2018-12-16T13:38:25.222Z,87.27
2018-12-16T13:40:54.306Z,74.03
2018-12-16T13:43:23.635Z,87.60
2018-12-16T13:45:52.741Z,82.03
2018-12-16T13:48:21.817Z,87.07
2018-12-16T13:50:50.957Z,79.87
2018-12-16T13:53:20.211Z,94.80
2018-12-16T13:55:49.775Z,68.80
2018-12-16T13:58:19.094Z,83.20
2018-12-16T14:00:48.154Z,90.07
2018-12-16T14:03:17.461Z,71.17
2018-12-16T14:05:47.038Z,76.57
2018-12-16T14:08:16.250Z,71.33
2018-12-16T14:10:45.429Z,79.80
2018-12-16T14:13:14.556Z,68.17
2018-12-16T14:15:43.817Z,64.90
2018-12-16T14:18:13.030Z,84.10
2018-12-16T14:20:42.051Z,87.50
2018-12-16T14:23:11.211Z,100.00
2018-12-16T14:25:40.214Z,75.47
2018-12-16T14:28:09.336Z,84.83
2018-12-16T14:30:38.632Z,74.07
2018-12-16T14:33:08.616Z,66.50
2018-12-16T14:35:37.671Z,65.47
2018-12-16T14:38:07.363Z,67.70
2018-12-16T14:40:36.444Z,74.47
2018-12-16T14:43:05.601Z,74.53
2018-12-16T14:45:34.787Z,66.47
2018-12-16T14:48:03.852Z,66.87
2018-12-16T14:50:33.835Z,69.47
2018-12-16T14:53:02.837Z,75.07
2018-12-16T14:55:32.112Z,73.23
2018-12-16T14:58:01.163Z,97.03
2018-12-16T15:00:30.203Z,516.73
2018-12-16T15:02:59.215Z,275.80
2018-12-16T15:05:28.397Z,206.80
2018-12-16T15:07:58.501Z,207.60
2018-12-16T15:10:27.555Z,125.50
2018-12-16T15:12:58.069Z,123.60
2018-12-16T15:15:28.193Z,132.33
2018-12-16T15:17:57.344Z,107.67
2018-12-16T15:20:26.454Z,113.27
2018-12-16T15:22:55.581Z,73.47
2018-12-16T15:25:24.676Z,103.83
2018-12-16T15:27:53.771Z,102.33
2018-12-16T15:30:22.897Z,119.63
2018-12-16T15:32:52.024Z,96.53
2018-12-16T15:35:21.125Z,117.07
2018-12-16T15:37:50.415Z,120.47
2018-12-16T15:40:19.758Z,101.30
2018-12-16T15:42:48.953Z,113.73
2018-12-16T15:45:18.086Z,180.73
2018-12-16T15:47:47.213Z,191.20
2018-12-16T15:50:16.335Z,256.13
2018-12-16T15:52:45.387Z,134.77
2018-12-16T15:55:14.525Z,136.93
2018-12-16T15:57:43.618Z,145.03
2018-12-16T16:00:13.169Z,116.47
2018-12-16T16:02:42.637Z,107.10
2018-12-16T16:05:11.666Z,98.73
2018-12-16T16:07:40.765Z,105.13
2018-12-16T16:10:10.179Z,101.83
2018-12-16T16:12:39.327Z,91.47
2018-12-16T16:15:08.788Z,128.87
2018-12-16T16:17:38.236Z,147.43
2018-12-16T16:20:07.579Z,188.43
2018-12-16T16:22:36.796Z,179.50
2018-12-16T16:25:06.641Z,136.83
2018-12-16T16:27:35.765Z,112.97
2018-12-16T16:30:06.107Z,111.23
2018-12-16T16:32:35.271Z,103.23
2018-12-16T16:35:04.533Z,96.37
2018-12-16T16:37:33.623Z,103.60
2018-12-16T16:40:03.064Z,98.87
2018-12-16T16:42:32.279Z,112.33
2018-12-16T16:45:01.320Z,113.97
2018-12-16T16:47:31.816Z,94.33
2018-12-16T16:50:00.928Z,109.80
2018-12-16T16:52:30.069Z,107.67
2018-12-16T16:55:00.078Z,102.50
2018-12-16T16:57:29.098Z,116.60
2018-12-16T16:59:58.134Z,112.70
2018-12-16T17:02:27.168Z,104.00
2018-12-16T17:04:56.169Z,170.83
2018-12-16T17:07:25.358Z,155.93
2018-12-16T17:09:54.591Z,144.77
2018-12-16T17:12:24.164Z,161.40
2018-12-16T17:14:54.283Z,119.70
2018-12-16T17:17:23.490Z,99.50
2018-12-16T17:19:52.592Z,101.57
2018-12-16T17:22:21.748Z,97.03
2018-12-16T17:24:50.800Z,109.97
2018-12-16T17:27:19.939Z,106.53
2018-12-16T17:29:49.334Z,104.97
2018-12-16T17:32:18.421Z,109.03
2018-12-16T17:34:47.476Z,96.93
2018-12-16T17:37:16.642Z,110.40
2018-12-16T17:39:45.869Z,104.83
2018-12-16T17:42:15.021Z,108.50
2018-12-16T17:44:44.086Z,94.93
2018-12-16T17:47:13.240Z,111.83
2018-12-16T17:49:42.365Z,108.07
2018-12-16T17:52:11.587Z,100.27
2018-12-16T17:54:41.821Z,104.93
2018-12-16T17:57:11.081Z,91.17
2018-12-16T17:59:40.525Z,93.30
2018-12-16T18:02:09.591Z,97.93
2018-12-16T18:04:38.725Z,100.17
2018-12-16T18:07:07.761Z,99.63
2018-12-16T18:09:37.012Z,100.03
2018-12-16T18:12:06.151Z,96.27
2018-12-16T18:14:35.333Z,95.97
2018-12-16T18:17:05.391Z,88.67
2018-12-16T18:19:34.560Z,93.57
2018-12-16T18:22:03.761Z,94.60
2018-12-16T18:24:32.734Z,99.87
2018-12-16T18:27:01.855Z,97.90
2018-12-16T18:29:31.045Z,108.13
2018-12-16T18:32:00.226Z,91.60
2018-12-16T18:34:29.385Z,94.90
2018-12-16T18:36:58.560Z,97.97
2018-12-16T18:39:27.620Z,98.10
2018-12-16T18:41:56.919Z,91.93
2018-12-16T18:44:26.022Z,97.50
2018-12-16T18:46:55.359Z,89.23
2018-12-16T18:49:24.417Z,135.37
2018-12-16T18:51:53.441Z,134.07
2018-12-16T18:54:22.594Z,156.53
2018-12-16T18:56:51.756Z,158.60
2018-12-16T18:59:20.804Z,184.17
2018-12-16T19:01:49.816Z,130.90
2018-12-16T19:04:21.036Z,127.23
2018-12-16T19:06:50.084Z,143.53
2018-12-16T19:09:19.187Z,125.33
2018-12-16T19:11:48.213Z,143.40
2018-12-16T19:14:17.566Z,146.43
2018-12-16T19:16:46.612Z,205.73
2018-12-16T19:19:16.018Z,153.33
2018-12-16T19:21:45.244Z,132.23
2018-12-16T19:24:14.280Z,110.50
2018-12-16T19:26:43.385Z,104.63
2018-12-16T19:29:13.385Z,100.33
2018-12-16T19:31:42.532Z,169.40
2018-12-16T19:34:11.745Z,187.27
2018-12-16T19:36:41.044Z,138.33
2018-12-16T19:39:10.206Z,122.67
2018-12-16T19:41:41.291Z,139.37
2018-12-16T19:44:10.460Z,116.23
2018-12-16T19:46:39.704Z,143.90
2018-12-16T19:49:08.950Z,189.90
2018-12-16T19:51:38.090Z,172.33
2018-12-16T19:54:07.099Z,130.70
2018-12-16T19:56:36.466Z,118.03
2018-12-16T19:59:05.841Z,113.27
2018-12-16T20:01:35.074Z,116.80
2018-12-16T20:04:09.325Z,125.97
2018-12-16T20:06:44.662Z,149.93
2018-12-16T20:09:13.835Z,133.80
2018-12-16T20:11:43.173Z,150.40
2018-12-16T20:14:12.215Z,130.83
2018-12-16T20:16:41.458Z,130.43
2018-12-16T20:19:10.701Z,120.47
2018-12-16T20:21:39.772Z,146.10
2018-12-16T20:24:08.971Z,199.90
2018-12-16T20:26:38.053Z,189.13
2018-12-16T20:29:07.216Z,132.63
2018-12-16T20:31:36.394Z,121.23
2018-12-16T20:34:05.545Z,95.53
2018-12-16T20:36:34.596Z,105.57
2018-12-16T20:39:04.638Z,98.83
2018-12-16T20:41:35.813Z,214.47
2018-12-16T20:44:04.873Z,190.73
2018-12-16T20:46:34.048Z,176.53
2018-12-16T20:49:03.110Z,133.60
2018-12-16T20:51:32.174Z,119.93
2018-12-16T20:54:01.333Z,134.23
2018-12-16T20:56:31.034Z,110.53
2018-12-16T20:59:00.082Z,120.50
2018-12-16T21:01:29.258Z,161.90
2018-12-16T21:03:58.301Z,135.10
2018-12-16T21:06:28.445Z,142.87
2018-12-16T21:08:57.561Z,93.33
2018-12-16T21:11:32.043Z,94.43
2018-12-16T21:14:06.405Z,99.50
2018-12-16T21:16:40.923Z,129.43
2018-12-16T21:19:10.146Z,158.00
2018-12-16T21:21:39.156Z,197.60
2018-12-16T21:24:08.275Z,170.97
2018-12-16T21:26:37.271Z,124.37
2018-12-16T21:29:06.516Z,110.10
2018-12-16T21:31:35.671Z,100.00
2018-12-16T21:34:05.429Z,101.13
2018-12-16T21:36:34.607Z,120.27
2018-12-16T21:39:04.946Z,153.57
2018-12-16T21:41:36.092Z,154.67
2018-12-16T21:44:05.141Z,162.60
2018-12-16T21:46:34.383Z,132.97
2018-12-16T21:49:03.582Z,117.87
2018-12-16T21:51:32.754Z,123.93
2018-12-16T21:54:01.919Z,116.27
2018-12-16T21:56:32.109Z,128.80
2018-12-16T21:59:02.550Z,126.63
2018-12-16T22:01:33.279Z,187.57
2018-12-16T22:04:02.364Z,128.60
2018-12-16T22:06:31.609Z,115.07
2018-12-16T22:09:00.858Z,98.80
2018-12-16T22:11:31.984Z,111.20
2018-12-16T22:14:01.053Z,116.60
2018-12-16T22:16:30.397Z,112.20
2018-12-16T22:18:59.697Z,113.60
2018-12-16T22:21:28.792Z,162.43
2018-12-16T22:23:57.845Z,130.27
2018-12-16T22:26:26.844Z,127.30
2018-12-16T22:28:56.152Z,113.43
2018-12-16T22:31:25.248Z,98.60
2018-12-16T22:33:54.803Z,97.93
2018-12-16T22:36:23.830Z,96.07
2018-12-16T22:38:52.877Z,101.47
2018-12-16T22:41:21.989Z,115.20
2018-12-16T22:43:51.613Z,125.47
2018-12-16T22:46:21.177Z,132.17
2018-12-16T22:48:50.428Z,124.33
2018-12-16T22:51:19.638Z,110.87
2018-12-16T22:53:48.731Z,105.80
2018-12-16T22:56:17.774Z,92.43
2018-12-16T22:58:46.871Z,108.73
2018-12-16T23:01:17.717Z,121.33
2018-12-16T23:03:48.340Z,125.73
2018-12-16T23:06:17.562Z,126.43
2018-12-16T23:08:46.681Z,121.00
2018-12-16T23:11:16.054Z,110.17
2018-12-16T23:13:45.410Z,92.47
2018-12-16T23:16:14.504Z,96.20
2018-12-16T23:18:43.886Z,102.47
2018-12-16T23:21:13.101Z,148.93
2018-12-16T23:23:42.221Z,142.90
2018-12-16T23:26:11.337Z,146.50
2018-12-16T23:28:40.773Z,151.30
2018-12-16T23:31:09.974Z,142.77
2018-12-16T23:33:39.048Z,132.03
2018-12-16T23:36:08.135Z,117.67
2018-12-16T23:38:37.207Z,117.23
2018-12-16T23:41:06.324Z,105.30
2018-12-16T23:43:35.344Z,77.10
2018-12-16T23:46:04.697Z,89.97
2018-12-16T23:48:33.792Z,69.17
2018-12-16T23:51:03.038Z,81.67
2018-12-16T23:53:33.972Z,76.80
2018-12-16T23:56:03.159Z,98.67
2018-12-16T23:58:32.170Z,100.97
